sensor_id;sensor_type;location;lat;lon;timestamp;temperature;humidity
20291;DHT22;10304;51.074;13.754;2023-04-24T00:01:04;16.50;99.90
20291;DHT22;10304;51.074;13.754;2023-04-24T00:03:34;16.40;99.90
20291;DHT22;10304;51.074;13.754;2023-04-24T00:06:01;16.40;99.90
20291;DHT22;10304;51.074;13.754;2023-04-24T00:08:29;16.50;99.90
20291;DHT22;10304;51.074;13.754;2023-04-24T00:10:56;16.50;99.90
20291;DHT22;10304;51.074;13.754;2023-04-24T00:13:22;16.40;99.90
20291;DHT22;10304;51.074;13.754;2023-04-24T00:15:49;16.40;99.90
20291;DHT22;10304;51.074;13.754;2023-04-24T00:18:16;16.40;99.90
20291;DHT22;10304;51.074;13.754;2023-04-24T00:20:42;16.40;99.90
20291;DHT22;10304;51.074;13.754;2023-04-24T00:23:10;16.40;99.90
20291;DHT22;10304;51.074;13.754;2023-04-24T00:25:36;16.40;99.90
20291;DHT22;10304;51.074;13.754;2023-04-24T00:28:03;16.40;99.90
20291;DHT22;10304;51.074;13.754;2023-04-24T00:30:30;16.40;99.90
20291;DHT22;10304;51.074;13.754;2023-04-24T00:32:57;16.40;99.90
20291;DHT22;10304;51.074;13.754;2023-04-24T00:35:24;16.40;99.90
20291;DHT22;10304;51.074;13.754;2023-04-24T00:37:51;16.40;99.90
20291;DHT22;10304;51.074;13.754;2023-04-24T00:40:17;16.40;99.90
20291;DHT22;10304;51.074;13.754;2023-04-24T00:42:44;16.40;99.90
20291;DHT22;10304;51.074;13.754;2023-04-24T00:45:12;16.40;99.90
20291;DHT22;10304;51.074;13.754;2023-04-24T00:47:40;16.40;99.90
20291;DHT22;10304;51.074;13.754;2023-04-24T00:50:08;16.40;99.90
20291;DHT22;10304;51.074;13.754;2023-04-24T00:52:35;16.40;99.90
20291;DHT22;10304;51.074;13.754;2023-04-24T00:55:02;16.40;99.90
20291;DHT22;10304;51.074;13.754;2023-04-24T00:57:30;16.30;99.90
20291;DHT22;10304;51.074;13.754;2023-04-24T00:59:57;16.30;99.90
20291;DHT22;10304;51.074;13.754;2023-04-24T01:02:24;16.40;99.90
20291;DHT22;10304;51.074;13.754;2023-04-24T01:04:53;16.30;99.90
20291;DHT22;10304;51.074;13.754;2023-04-24T01:07:20;16.40;99.90
20291;DHT22;10304;51.074;13.754;2023-04-24T01:09:48;16.30;99.90
20291;DHT22;10304;51.074;13.754;2023-04-24T01:12:18;16.30;99.90
20291;DHT22;10304;51.074;13.754;2023-04-24T01:14:45;16.30;99.90
20291;DHT22;10304;51.074;13.754;2023-04-24T01:17:11;16.30;99.90
20291;DHT22;10304;51.074;13.754;2023-04-24T01:19:39;16.30;99.90
20291;DHT22;10304;51.074;13.754;2023-04-24T01:22:11;16.30;99.90
20291;DHT22;10304;51.074;13.754;2023-04-24T01:24:39;16.30;1.00
20291;DHT22;10304;51.074;13.754;2023-04-24T01:27:06;16.30;1.00
20291;DHT22;10304;51.074;13.754;2023-04-24T01:29:33;16.30;1.00
20291;DHT22;10304;51.074;13.754;2023-04-24T01:32:00;16.30;1.00
20291;DHT22;10304;51.074;13.754;2023-04-24T01:34:27;16.30;1.00
20291;DHT22;10304;51.074;13.754;2023-04-24T01:36:54;16.30;1.00
20291;DHT22;10304;51.074;13.754;2023-04-24T01:39:21;16.20;1.00
20291;DHT22;10304;51.074;13.754;2023-04-24T01:41:49;16.30;1.00
20291;DHT22;10304;51.074;13.754;2023-04-24T01:44:17;16.20;1.00
20291;DHT22;10304;51.074;13.754;2023-04-24T01:46:44;16.30;1.00
20291;DHT22;10304;51.074;13.754;2023-04-24T01:49:11;16.20;1.00
20291;DHT22;10304;51.074;13.754;2023-04-24T01:51:38;16.20;1.00
20291;DHT22;10304;51.074;13.754;2023-04-24T01:54:05;16.20;1.00
20291;DHT22;10304;51.074;13.754;2023-04-24T01:56:34;16.20;1.00
20291;DHT22;10304;51.074;13.754;2023-04-24T01:59:03;16.20;1.00
20291;DHT22;10304;51.074;13.754;2023-04-24T02:01:37;16.20;1.00
20291;DHT22;10304;51.074;13.754;2023-04-24T02:04:05;16.20;1.00
20291;DHT22;10304;51.074;13.754;2023-04-24T02:06:32;16.30;1.00
20291;DHT22;10304;51.074;13.754;2023-04-24T02:08:59;16.20;1.00
20291;DHT22;10304;51.074;13.754;2023-04-24T02:11:26;16.20;1.00
20291;DHT22;10304;51.074;13.754;2023-04-24T02:13:53;16.20;1.00
20291;DHT22;10304;51.074;13.754;2023-04-24T02:16:20;16.20;1.00
20291;DHT22;10304;51.074;13.754;2023-04-24T02:18:46;16.20;1.00
20291;DHT22;10304;51.074;13.754;2023-04-24T02:21:13;16.20;1.00
20291;DHT22;10304;51.074;13.754;2023-04-24T02:23:40;16.20;1.00
20291;DHT22;10304;51.074;13.754;2023-04-24T02:26:07;16.20;1.00
20291;DHT22;10304;51.074;13.754;2023-04-24T02:28:33;16.20;1.00
20291;DHT22;10304;51.074;13.754;2023-04-24T02:31:00;16.20;1.00
20291;DHT22;10304;51.074;13.754;2023-04-24T02:33:27;16.20;1.00
20291;DHT22;10304;51.074;13.754;2023-04-24T02:35:53;16.20;1.00
20291;DHT22;10304;51.074;13.754;2023-04-24T02:38:20;16.20;1.00
20291;DHT22;10304;51.074;13.754;2023-04-24T02:40:47;16.20;1.00
20291;DHT22;10304;51.074;13.754;2023-04-24T02:43:13;16.20;1.00
20291;DHT22;10304;51.074;13.754;2023-04-24T02:45:40;16.20;1.00
20291;DHT22;10304;51.074;13.754;2023-04-24T02:48:07;16.20;1.00
20291;DHT22;10304;51.074;13.754;2023-04-24T02:50:33;16.20;1.00
20291;DHT22;10304;51.074;13.754;2023-04-24T02:53:00;16.20;1.00
20291;DHT22;10304;51.074;13.754;2023-04-24T02:55:26;16.20;1.00
20291;DHT22;10304;51.074;13.754;2023-04-24T02:57:53;16.20;1.00
20291;DHT22;10304;51.074;13.754;2023-04-24T03:00:20;16.20;1.00
20291;DHT22;10304;51.074;13.754;2023-04-24T03:02:47;16.20;1.00
20291;DHT22;10304;51.074;13.754;2023-04-24T03:05:13;16.20;1.00
20291;DHT22;10304;51.074;13.754;2023-04-24T03:07:40;16.20;1.00
20291;DHT22;10304;51.074;13.754;2023-04-24T03:10:07;16.20;1.00
20291;DHT22;10304;51.074;13.754;2023-04-24T03:12:34;16.20;1.00
20291;DHT22;10304;51.074;13.754;2023-04-24T03:15:01;16.20;1.00
20291;DHT22;10304;51.074;13.754;2023-04-24T03:17:28;16.20;1.00
20291;DHT22;10304;51.074;13.754;2023-04-24T03:19:54;16.20;1.00
20291;DHT22;10304;51.074;13.754;2023-04-24T03:22:21;16.20;1.00
20291;DHT22;10304;51.074;13.754;2023-04-24T03:24:48;16.20;1.00
20291;DHT22;10304;51.074;13.754;2023-04-24T03:27:14;16.20;1.00
20291;DHT22;10304;51.074;13.754;2023-04-24T03:29:41;16.20;1.00
20291;DHT22;10304;51.074;13.754;2023-04-24T03:32:08;16.20;1.00
20291;DHT22;10304;51.074;13.754;2023-04-24T03:34:35;16.20;1.00
20291;DHT22;10304;51.074;13.754;2023-04-24T03:37:01;16.20;1.00
20291;DHT22;10304;51.074;13.754;2023-04-24T03:39:28;16.20;1.00
20291;DHT22;10304;51.074;13.754;2023-04-24T03:41:55;16.20;1.00
20291;DHT22;10304;51.074;13.754;2023-04-24T03:44:22;16.10;1.00
20291;DHT22;10304;51.074;13.754;2023-04-24T03:46:48;16.10;1.00
20291;DHT22;10304;51.074;13.754;2023-04-24T03:49:15;16.10;1.00
20291;DHT22;10304;51.074;13.754;2023-04-24T03:51:42;16.10;1.00
20291;DHT22;10304;51.074;13.754;2023-04-24T03:54:09;16.10;1.00
20291;DHT22;10304;51.074;13.754;2023-04-24T03:56:35;16.10;1.00
20291;DHT22;10304;51.074;13.754;2023-04-24T03:59:02;16.00;1.00
20291;DHT22;10304;51.074;13.754;2023-04-24T04:01:29;16.00;1.00
20291;DHT22;10304;51.074;13.754;2023-04-24T04:03:57;16.00;1.00
20291;DHT22;10304;51.074;13.754;2023-04-24T04:06:24;16.00;1.00
20291;DHT22;10304;51.074;13.754;2023-04-24T04:08:50;15.90;1.00
20291;DHT22;10304;51.074;13.754;2023-04-24T04:11:17;15.90;1.00
20291;DHT22;10304;51.074;13.754;2023-04-24T04:13:44;16.00;1.00
20291;DHT22;10304;51.074;13.754;2023-04-24T04:16:10;16.00;1.00
20291;DHT22;10304;51.074;13.754;2023-04-24T04:18:37;16.10;1.00
20291;DHT22;10304;51.074;13.754;2023-04-24T04:21:04;16.10;1.00
20291;DHT22;10304;51.074;13.754;2023-04-24T04:23:31;16.10;1.00
20291;DHT22;10304;51.074;13.754;2023-04-24T04:25:58;16.10;1.00
20291;DHT22;10304;51.074;13.754;2023-04-24T04:28:25;16.20;99.90
20291;DHT22;10304;51.074;13.754;2023-04-24T04:30:52;16.20;13.60
20291;DHT22;10304;51.074;13.754;2023-04-24T04:33:21;16.20;1.00
20291;DHT22;10304;51.074;13.754;2023-04-24T04:35:48;16.20;1.00
20291;DHT22;10304;51.074;13.754;2023-04-24T04:38:23;16.20;1.00
20291;DHT22;10304;51.074;13.754;2023-04-24T04:40:50;16.30;1.00
20291;DHT22;10304;51.074;13.754;2023-04-24T04:43:17;16.30;1.00
20291;DHT22;10304;51.074;13.754;2023-04-24T04:45:43;16.30;1.00
20291;DHT22;10304;51.074;13.754;2023-04-24T04:48:11;16.30;1.00
20291;DHT22;10304;51.074;13.754;2023-04-24T04:50:40;16.40;1.00
20291;DHT22;10304;51.074;13.754;2023-04-24T04:53:06;16.40;1.00
20291;DHT22;10304;51.074;13.754;2023-04-24T04:55:33;16.40;1.00
20291;DHT22;10304;51.074;13.754;2023-04-24T04:58:00;16.50;1.00
20291;DHT22;10304;51.074;13.754;2023-04-24T05:00:27;16.50;1.00
20291;DHT22;10304;51.074;13.754;2023-04-24T05:02:55;16.50;1.00
20291;DHT22;10304;51.074;13.754;2023-04-24T05:05:38;16.50;1.00
20291;DHT22;10304;51.074;13.754;2023-04-24T05:08:08;16.60;1.00
20291;DHT22;10304;51.074;13.754;2023-04-24T05:10:51;16.60;1.00
20291;DHT22;10304;51.074;13.754;2023-04-24T05:13:18;16.70;1.00
20291;DHT22;10304;51.074;13.754;2023-04-24T05:15:57;16.70;1.00
20291;DHT22;10304;51.074;13.754;2023-04-24T05:18:24;16.80;1.00
20291;DHT22;10304;51.074;13.754;2023-04-24T05:20:51;16.80;99.90
20291;DHT22;10304;51.074;13.754;2023-04-24T05:23:17;16.90;99.90
20291;DHT22;10304;51.074;13.754;2023-04-24T05:25:44;16.90;99.90
20291;DHT22;10304;51.074;13.754;2023-04-24T05:28:12;16.90;99.90
20291;DHT22;10304;51.074;13.754;2023-04-24T05:30:39;17.00;99.90
20291;DHT22;10304;51.074;13.754;2023-04-24T05:33:06;17.00;99.90
20291;DHT22;10304;51.074;13.754;2023-04-24T05:35:33;17.00;99.90
20291;DHT22;10304;51.074;13.754;2023-04-24T05:37:59;17.10;99.90
20291;DHT22;10304;51.074;13.754;2023-04-24T05:40:26;17.10;99.90
20291;DHT22;10304;51.074;13.754;2023-04-24T05:42:52;17.10;99.90
20291;DHT22;10304;51.074;13.754;2023-04-24T05:45:19;17.20;99.90
20291;DHT22;10304;51.074;13.754;2023-04-24T05:47:46;17.20;99.90
20291;DHT22;10304;51.074;13.754;2023-04-24T05:50:13;17.20;99.90
20291;DHT22;10304;51.074;13.754;2023-04-24T05:52:40;17.20;99.90
20291;DHT22;10304;51.074;13.754;2023-04-24T05:55:07;17.30;99.90
20291;DHT22;10304;51.074;13.754;2023-04-24T05:57:34;17.30;99.90
20291;DHT22;10304;51.074;13.754;2023-04-24T06:00:00;17.30;99.90
20291;DHT22;10304;51.074;13.754;2023-04-24T06:02:27;17.40;99.90
20291;DHT22;10304;51.074;13.754;2023-04-24T06:04:55;17.50;99.90
20291;DHT22;10304;51.074;13.754;2023-04-24T06:07:22;17.60;99.90
20291;DHT22;10304;51.074;13.754;2023-04-24T06:09:49;17.60;99.90
20291;DHT22;10304;51.074;13.754;2023-04-24T06:12:15;17.60;99.90
20291;DHT22;10304;51.074;13.754;2023-04-24T06:14:42;17.70;99.90
20291;DHT22;10304;51.074;13.754;2023-04-24T06:17:09;17.80;99.90
20291;DHT22;10304;51.074;13.754;2023-04-24T06:19:35;17.70;99.90
20291;DHT22;10304;51.074;13.754;2023-04-24T06:22:02;17.80;84.90
20291;DHT22;10304;51.074;13.754;2023-04-24T06:24:29;17.80;26.30
20291;DHT22;10304;51.074;13.754;2023-04-24T06:26:56;17.80;1.60
20291;DHT22;10304;51.074;13.754;2023-04-24T06:29:25;17.90;1.00
20291;DHT22;10304;51.074;13.754;2023-04-24T06:31:51;17.90;1.00
20291;DHT22;10304;51.074;13.754;2023-04-24T06:34:18;17.90;1.00
20291;DHT22;10304;51.074;13.754;2023-04-24T06:36:46;18.00;1.00
20291;DHT22;10304;51.074;13.754;2023-04-24T06:39:13;18.00;1.00
20291;DHT22;10304;51.074;13.754;2023-04-24T06:41:40;18.00;1.00
20291;DHT22;10304;51.074;13.754;2023-04-24T06:44:07;18.00;1.00
20291;DHT22;10304;51.074;13.754;2023-04-24T06:46:33;18.00;1.00
20291;DHT22;10304;51.074;13.754;2023-04-24T06:49:00;18.00;1.00
20291;DHT22;10304;51.074;13.754;2023-04-24T06:51:27;18.10;1.00
20291;DHT22;10304;51.074;13.754;2023-04-24T06:53:54;18.20;1.00
20291;DHT22;10304;51.074;13.754;2023-04-24T06:56:22;18.30;1.00
20291;DHT22;10304;51.074;13.754;2023-04-24T06:58:50;18.40;1.00
20291;DHT22;10304;51.074;13.754;2023-04-24T07:01:17;18.40;1.00
20291;DHT22;10304;51.074;13.754;2023-04-24T07:03:44;18.50;1.00
20291;DHT22;10304;51.074;13.754;2023-04-24T07:06:11;18.50;1.00
20291;DHT22;10304;51.074;13.754;2023-04-24T07:08:39;18.50;1.00
20291;DHT22;10304;51.074;13.754;2023-04-24T07:11:05;18.60;1.00
20291;DHT22;10304;51.074;13.754;2023-04-24T07:13:33;18.70;1.00
20291;DHT22;10304;51.074;13.754;2023-04-24T07:16:01;18.80;1.00
20291;DHT22;10304;51.074;13.754;2023-04-24T07:18:28;18.80;1.00
20291;DHT22;10304;51.074;13.754;2023-04-24T07:20:55;18.90;1.00
20291;DHT22;10304;51.074;13.754;2023-04-24T07:23:23;18.90;1.00
20291;DHT22;10304;51.074;13.754;2023-04-24T07:25:49;18.90;1.00
20291;DHT22;10304;51.074;13.754;2023-04-24T07:28:16;18.90;1.00
20291;DHT22;10304;51.074;13.754;2023-04-24T07:30:44;18.90;1.00
20291;DHT22;10304;51.074;13.754;2023-04-24T07:33:11;18.80;1.00
20291;DHT22;10304;51.074;13.754;2023-04-24T07:35:39;18.80;1.00
20291;DHT22;10304;51.074;13.754;2023-04-24T07:38:06;18.70;1.00
20291;DHT22;10304;51.074;13.754;2023-04-24T07:40:33;18.70;1.00
20291;DHT22;10304;51.074;13.754;2023-04-24T07:42:59;18.70;1.00
20291;DHT22;10304;51.074;13.754;2023-04-24T07:45:26;18.60;1.00
20291;DHT22;10304;51.074;13.754;2023-04-24T07:47:54;18.70;1.00
20291;DHT22;10304;51.074;13.754;2023-04-24T07:50:21;18.70;1.00
20291;DHT22;10304;51.074;13.754;2023-04-24T07:52:48;18.70;1.00
20291;DHT22;10304;51.074;13.754;2023-04-24T07:55:15;18.70;1.00
20291;DHT22;10304;51.074;13.754;2023-04-24T07:57:42;18.80;1.00
20291;DHT22;10304;51.074;13.754;2023-04-24T08:00:09;18.80;1.00
20291;DHT22;10304;51.074;13.754;2023-04-24T08:02:36;18.80;1.00
20291;DHT22;10304;51.074;13.754;2023-04-24T08:05:03;18.80;1.00
20291;DHT22;10304;51.074;13.754;2023-04-24T08:07:30;18.90;1.00
20291;DHT22;10304;51.074;13.754;2023-04-24T08:09:57;19.00;1.00
20291;DHT22;10304;51.074;13.754;2023-04-24T08:12:28;19.10;1.00
20291;DHT22;10304;51.074;13.754;2023-04-24T08:14:54;19.10;1.00
20291;DHT22;10304;51.074;13.754;2023-04-24T08:17:21;19.20;1.00
20291;DHT22;10304;51.074;13.754;2023-04-24T08:19:48;19.20;1.00
20291;DHT22;10304;51.074;13.754;2023-04-24T08:22:15;19.30;1.00
20291;DHT22;10304;51.074;13.754;2023-04-24T08:24:42;19.30;1.00
20291;DHT22;10304;51.074;13.754;2023-04-24T08:27:09;19.30;1.00
20291;DHT22;10304;51.074;13.754;2023-04-24T08:29:36;19.30;1.00
20291;DHT22;10304;51.074;13.754;2023-04-24T08:32:03;19.20;1.00
20291;DHT22;10304;51.074;13.754;2023-04-24T08:34:29;19.30;1.00
20291;DHT22;10304;51.074;13.754;2023-04-24T08:36:56;19.20;1.00
20291;DHT22;10304;51.074;13.754;2023-04-24T08:39:23;19.20;1.00
20291;DHT22;10304;51.074;13.754;2023-04-24T08:41:50;19.20;1.00
20291;DHT22;10304;51.074;13.754;2023-04-24T08:44:19;19.20;1.00
20291;DHT22;10304;51.074;13.754;2023-04-24T08:46:47;19.20;1.00
20291;DHT22;10304;51.074;13.754;2023-04-24T08:49:15;19.20;1.00
20291;DHT22;10304;51.074;13.754;2023-04-24T08:51:44;19.20;1.00
20291;DHT22;10304;51.074;13.754;2023-04-24T08:54:12;19.20;1.00
20291;DHT22;10304;51.074;13.754;2023-04-24T08:56:39;19.20;1.00
20291;DHT22;10304;51.074;13.754;2023-04-24T08:59:06;19.20;1.00
20291;DHT22;10304;51.074;13.754;2023-04-24T09:01:34;19.30;1.00
20291;DHT22;10304;51.074;13.754;2023-04-24T09:04:04;19.30;1.00
20291;DHT22;10304;51.074;13.754;2023-04-24T09:06:32;19.30;1.00
20291;DHT22;10304;51.074;13.754;2023-04-24T09:09:01;19.40;1.00
20291;DHT22;10304;51.074;13.754;2023-04-24T09:11:32;19.40;1.00
20291;DHT22;10304;51.074;13.754;2023-04-24T09:13:59;19.60;1.00
20291;DHT22;10304;51.074;13.754;2023-04-24T09:16:27;19.60;1.00
20291;DHT22;10304;51.074;13.754;2023-04-24T09:18:55;19.60;1.00
20291;DHT22;10304;51.074;13.754;2023-04-24T09:21:22;19.60;1.00
20291;DHT22;10304;51.074;13.754;2023-04-24T09:24:00;19.60;1.00
20291;DHT22;10304;51.074;13.754;2023-04-24T09:26:33;19.60;1.00
20291;DHT22;10304;51.074;13.754;2023-04-24T09:29:01;19.60;1.00
20291;DHT22;10304;51.074;13.754;2023-04-24T09:31:29;19.60;1.00
20291;DHT22;10304;51.074;13.754;2023-04-24T09:34:01;19.60;1.00
20291;DHT22;10304;51.074;13.754;2023-04-24T09:36:42;19.60;1.00
20291;DHT22;10304;51.074;13.754;2023-04-24T09:39:11;19.60;1.00
20291;DHT22;10304;51.074;13.754;2023-04-24T09:41:55;19.60;1.00
20291;DHT22;10304;51.074;13.754;2023-04-24T09:44:26;19.60;1.00
20291;DHT22;10304;51.074;13.754;2023-04-24T09:46:54;19.60;1.00
20291;DHT22;10304;51.074;13.754;2023-04-24T09:49:30;19.70;1.00
20291;DHT22;10304;51.074;13.754;2023-04-24T09:52:09;19.70;1.00
20291;DHT22;10304;51.074;13.754;2023-04-24T09:54:37;19.70;1.00
20291;DHT22;10304;51.074;13.754;2023-04-24T09:57:07;19.70;1.00
20291;DHT22;10304;51.074;13.754;2023-04-24T09:59:34;19.70;1.00
20291;DHT22;10304;51.074;13.754;2023-04-24T10:02:03;19.70;1.00
20291;DHT22;10304;51.074;13.754;2023-04-24T10:04:54;19.70;1.00
20291;DHT22;10304;51.074;13.754;2023-04-24T10:07:25;19.70;1.00
20291;DHT22;10304;51.074;13.754;2023-04-24T10:09:53;19.70;1.00
20291;DHT22;10304;51.074;13.754;2023-04-24T10:12:21;19.70;1.00
20291;DHT22;10304;51.074;13.754;2023-04-24T10:14:49;19.80;1.00
20291;DHT22;10304;51.074;13.754;2023-04-24T10:17:16;19.80;1.00
20291;DHT22;10304;51.074;13.754;2023-04-24T10:19:43;19.80;1.00
20291;DHT22;10304;51.074;13.754;2023-04-24T10:22:11;19.80;1.00
20291;DHT22;10304;51.074;13.754;2023-04-24T10:24:38;19.80;1.00
20291;DHT22;10304;51.074;13.754;2023-04-24T10:27:06;19.80;1.00
20291;DHT22;10304;51.074;13.754;2023-04-24T10:29:35;19.80;1.00
20291;DHT22;10304;51.074;13.754;2023-04-24T10:32:02;19.80;1.00
20291;DHT22;10304;51.074;13.754;2023-04-24T10:34:29;19.90;1.00
20291;DHT22;10304;51.074;13.754;2023-04-24T10:36:56;20.00;1.00
20291;DHT22;10304;51.074;13.754;2023-04-24T10:39:24;20.10;1.00
20291;DHT22;10304;51.074;13.754;2023-04-24T10:41:54;20.30;1.00
20291;DHT22;10304;51.074;13.754;2023-04-24T10:44:22;20.50;1.00
20291;DHT22;10304;51.074;13.754;2023-04-24T10:46:53;20.70;1.00
20291;DHT22;10304;51.074;13.754;2023-04-24T10:49:31;20.90;1.00
20291;DHT22;10304;51.074;13.754;2023-04-24T10:52:04;21.00;1.00
20291;DHT22;10304;51.074;13.754;2023-04-24T10:54:45;21.10;1.00
20291;DHT22;10304;51.074;13.754;2023-04-24T11:00:16;21.10;1.00
20291;DHT22;10304;51.074;13.754;2023-04-24T11:02:46;21.10;1.00
20291;DHT22;10304;51.074;13.754;2023-04-24T11:05:17;21.00;1.00
20291;DHT22;10304;51.074;13.754;2023-04-24T11:08:16;21.00;1.00
20291;DHT22;10304;51.074;13.754;2023-04-24T11:13:22;20.70;1.00
20291;DHT22;10304;51.074;13.754;2023-04-24T11:27:18;20.10;1.00
20291;DHT22;10304;51.074;13.754;2023-04-24T11:30:02;20.10;1.00
20291;DHT22;10304;51.074;13.754;2023-04-24T11:35:01;20.00;1.00
20291;DHT22;10304;51.074;13.754;2023-04-24T11:37:33;20.00;1.00
20291;DHT22;10304;51.074;13.754;2023-04-24T11:40:00;20.00;1.00
20291;DHT22;10304;51.074;13.754;2023-04-24T11:42:29;20.10;1.00
20291;DHT22;10304;51.074;13.754;2023-04-24T11:44:59;20.20;1.00
20291;DHT22;10304;51.074;13.754;2023-04-24T11:47:32;20.50;1.00
20291;DHT22;10304;51.074;13.754;2023-04-24T11:50:00;20.80;1.00
20291;DHT22;10304;51.074;13.754;2023-04-24T11:52:29;21.10;1.00
20291;DHT22;10304;51.074;13.754;2023-04-24T11:54:56;21.30;1.00
20291;DHT22;10304;51.074;13.754;2023-04-24T11:57:25;21.40;1.00
20291;DHT22;10304;51.074;13.754;2023-04-24T11:59:55;21.50;1.00
20291;DHT22;10304;51.074;13.754;2023-04-24T12:02:26;21.60;1.00
20291;DHT22;10304;51.074;13.754;2023-04-24T12:04:54;21.50;1.00
20291;DHT22;10304;51.074;13.754;2023-04-24T12:07:22;21.40;1.00
20291;DHT22;10304;51.074;13.754;2023-04-24T12:09:57;21.20;1.00
20291;DHT22;10304;51.074;13.754;2023-04-24T12:12:27;21.00;1.00
20291;DHT22;10304;51.074;13.754;2023-04-24T12:14:57;20.80;1.00
20291;DHT22;10304;51.074;13.754;2023-04-24T12:17:27;20.60;1.00
20291;DHT22;10304;51.074;13.754;2023-04-24T12:20:03;20.40;1.00
20291;DHT22;10304;51.074;13.754;2023-04-24T12:22:52;20.30;1.00
20291;DHT22;10304;51.074;13.754;2023-04-24T12:25:31;20.10;1.00
20291;DHT22;10304;51.074;13.754;2023-04-24T12:30:32;19.80;1.00
20291;DHT22;10304;51.074;13.754;2023-04-24T12:33:00;19.70;1.00
20291;DHT22;10304;51.074;13.754;2023-04-24T12:35:30;19.70;1.00
20291;DHT22;10304;51.074;13.754;2023-04-24T12:38:13;19.70;1.00
20291;DHT22;10304;51.074;13.754;2023-04-24T12:40:42;19.70;1.00
20291;DHT22;10304;51.074;13.754;2023-04-24T12:43:14;19.70;1.00
20291;DHT22;10304;51.074;13.754;2023-04-24T12:45:41;19.90;1.00
20291;DHT22;10304;51.074;13.754;2023-04-24T12:48:08;20.10;1.00
20291;DHT22;10304;51.074;13.754;2023-04-24T12:50:35;20.20;1.00
20291;DHT22;10304;51.074;13.754;2023-04-24T12:53:01;20.30;1.00
20291;DHT22;10304;51.074;13.754;2023-04-24T12:55:28;20.30;1.00
20291;DHT22;10304;51.074;13.754;2023-04-24T12:57:55;20.20;1.00
20291;DHT22;10304;51.074;13.754;2023-04-24T13:00:22;20.10;1.00
20291;DHT22;10304;51.074;13.754;2023-04-24T13:02:49;20.00;1.00
20291;DHT22;10304;51.074;13.754;2023-04-24T13:05:16;20.00;1.00
20291;DHT22;10304;51.074;13.754;2023-04-24T13:07:42;19.90;1.00
20291;DHT22;10304;51.074;13.754;2023-04-24T13:10:09;20.20;1.00
20291;DHT22;10304;51.074;13.754;2023-04-24T13:12:36;20.60;1.00
20291;DHT22;10304;51.074;13.754;2023-04-24T13:15:04;20.90;1.00
20291;DHT22;10304;51.074;13.754;2023-04-24T13:17:31;21.10;1.00
20291;DHT22;10304;51.074;13.754;2023-04-24T13:19:57;21.40;1.00
20291;DHT22;10304;51.074;13.754;2023-04-24T13:22:24;21.80;1.00
20291;DHT22;10304;51.074;13.754;2023-04-24T13:24:51;22.30;1.00
20291;DHT22;10304;51.074;13.754;2023-04-24T13:27:18;22.60;1.00
20291;DHT22;10304;51.074;13.754;2023-04-24T13:29:45;22.80;1.00
20291;DHT22;10304;51.074;13.754;2023-04-24T13:32:12;23.10;1.00
20291;DHT22;10304;51.074;13.754;2023-04-24T13:34:39;23.20;1.00
20291;DHT22;10304;51.074;13.754;2023-04-24T13:37:06;23.40;1.00
20291;DHT22;10304;51.074;13.754;2023-04-24T13:39:34;23.70;1.00
20291;DHT22;10304;51.074;13.754;2023-04-24T13:42:01;24.00;1.00
20291;DHT22;10304;51.074;13.754;2023-04-24T13:44:30;24.30;1.00
20291;DHT22;10304;51.074;13.754;2023-04-24T13:46:57;24.40;1.00
20291;DHT22;10304;51.074;13.754;2023-04-24T13:49:25;24.60;1.00
20291;DHT22;10304;51.074;13.754;2023-04-24T13:51:53;24.60;1.00
20291;DHT22;10304;51.074;13.754;2023-04-24T13:54:20;24.40;1.00
20291;DHT22;10304;51.074;13.754;2023-04-24T13:56:47;24.20;1.00
20291;DHT22;10304;51.074;13.754;2023-04-24T13:59:13;23.90;1.00
20291;DHT22;10304;51.074;13.754;2023-04-24T14:01:40;23.80;1.00
20291;DHT22;10304;51.074;13.754;2023-04-24T14:04:07;23.60;1.00
20291;DHT22;10304;51.074;13.754;2023-04-24T14:06:34;23.50;1.00
20291;DHT22;10304;51.074;13.754;2023-04-24T14:09:01;23.70;1.00
20291;DHT22;10304;51.074;13.754;2023-04-24T14:11:28;23.80;1.00
20291;DHT22;10304;51.074;13.754;2023-04-24T14:13:55;23.90;1.00
20291;DHT22;10304;51.074;13.754;2023-04-24T14:16:22;24.20;1.00
20291;DHT22;10304;51.074;13.754;2023-04-24T14:18:49;24.40;1.00
20291;DHT22;10304;51.074;13.754;2023-04-24T14:21:16;24.50;1.00
20291;DHT22;10304;51.074;13.754;2023-04-24T14:23:43;24.80;1.00
20291;DHT22;10304;51.074;13.754;2023-04-24T14:26:11;25.00;1.00
20291;DHT22;10304;51.074;13.754;2023-04-24T14:28:37;25.20;1.00
20291;DHT22;10304;51.074;13.754;2023-04-24T14:31:04;25.20;1.00
20291;DHT22;10304;51.074;13.754;2023-04-24T14:33:31;25.30;1.00
20291;DHT22;10304;51.074;13.754;2023-04-24T14:35:58;25.30;1.00
20291;DHT22;10304;51.074;13.754;2023-04-24T14:38:25;25.20;1.00
20291;DHT22;10304;51.074;13.754;2023-04-24T14:40:51;24.80;1.00
20291;DHT22;10304;51.074;13.754;2023-04-24T14:43:33;24.40;1.00
20291;DHT22;10304;51.074;13.754;2023-04-24T14:46:02;24.20;1.00
20291;DHT22;10304;51.074;13.754;2023-04-24T14:48:29;24.10;1.00
20291;DHT22;10304;51.074;13.754;2023-04-24T14:50:57;23.80;1.00
20291;DHT22;10304;51.074;13.754;2023-04-24T14:53:23;23.60;1.00
20291;DHT22;10304;51.074;13.754;2023-04-24T14:55:50;23.20;1.00
20291;DHT22;10304;51.074;13.754;2023-04-24T14:58:17;23.00;1.00
20291;DHT22;10304;51.074;13.754;2023-04-24T15:00:43;22.80;1.00
20291;DHT22;10304;51.074;13.754;2023-04-24T15:03:10;22.50;1.00
20291;DHT22;10304;51.074;13.754;2023-04-24T15:05:37;22.20;1.00
20291;DHT22;10304;51.074;13.754;2023-04-24T15:08:04;21.90;1.00
20291;DHT22;10304;51.074;13.754;2023-04-24T15:10:31;21.80;1.00
20291;DHT22;10304;51.074;13.754;2023-04-24T15:12:58;21.80;1.00
20291;DHT22;10304;51.074;13.754;2023-04-24T15:15:25;21.70;1.00
20291;DHT22;10304;51.074;13.754;2023-04-24T15:17:51;21.70;1.00
20291;DHT22;10304;51.074;13.754;2023-04-24T15:20:18;21.70;1.00
20291;DHT22;10304;51.074;13.754;2023-04-24T15:22:45;21.70;1.00
20291;DHT22;10304;51.074;13.754;2023-04-24T15:25:12;21.50;1.00
20291;DHT22;10304;51.074;13.754;2023-04-24T15:27:42;21.40;1.00
20291;DHT22;10304;51.074;13.754;2023-04-24T15:30:10;21.20;1.00
20291;DHT22;10304;51.074;13.754;2023-04-24T15:32:38;21.00;1.00
20291;DHT22;10304;51.074;13.754;2023-04-24T15:35:06;20.80;1.00
20291;DHT22;10304;51.074;13.754;2023-04-24T15:37:36;20.60;1.00
20291;DHT22;10304;51.074;13.754;2023-04-24T15:40:04;20.40;1.00
20291;DHT22;10304;51.074;13.754;2023-04-24T15:42:34;20.20;1.00
20291;DHT22;10304;51.074;13.754;2023-04-24T15:45:02;20.00;1.00
20291;DHT22;10304;51.074;13.754;2023-04-24T15:47:28;19.90;1.00
20291;DHT22;10304;51.074;13.754;2023-04-24T15:49:57;19.80;1.00
20291;DHT22;10304;51.074;13.754;2023-04-24T15:52:24;19.70;1.00
20291;DHT22;10304;51.074;13.754;2023-04-24T15:54:51;19.60;1.00